createdAt,value
2023-01-25T00:02:17.314Z,27.52
2023-01-25T00:06:10.001Z,25.63
2023-01-25T00:10:02.566Z,25.67
2023-01-25T00:13:56.621Z,25.02
2023-01-25T00:17:49.564Z,24.63
2023-01-25T00:21:42.272Z,26.35
2023-01-25T00:25:35.199Z,27.13
2023-01-25T00:29:28.118Z,26.42
2023-01-25T00:33:52.932Z,26.65
2023-01-25T00:37:49.973Z,24.85
2023-01-25T00:41:44.013Z,26.92
2023-01-25T00:45:36.688Z,27.00
2023-01-25T00:49:31.863Z,26.70
2023-01-25T00:53:24.583Z,27.92
2023-01-25T00:57:17.279Z,26.80
2023-01-25T01:01:12.575Z,27.58
2023-01-25T01:05:06.165Z,29.00
2023-01-25T01:08:59.444Z,27.80
2023-01-25T01:12:52.330Z,28.83
2023-01-25T01:16:45.238Z,29.13
2023-01-25T01:20:37.945Z,27.95
2023-01-25T01:24:30.729Z,30.17
2023-01-25T01:28:23.569Z,28.25
2023-01-25T01:32:16.523Z,29.15
2023-01-25T01:36:10.324Z,29.00
2023-01-25T01:40:03.067Z,27.48
2023-01-25T01:43:55.866Z,28.48
2023-01-25T01:47:49.163Z,30.38
2023-01-25T01:51:48.415Z,31.85
2023-01-25T01:55:41.278Z,30.67
2023-01-25T01:59:41.194Z,29.80
2023-01-25T02:03:35.029Z,30.85
2023-01-25T02:07:30.500Z,29.55
2023-01-25T02:11:27.054Z,32.08
2023-01-25T02:15:20.004Z,29.60
2023-01-25T02:19:22.845Z,29.52
2023-01-25T02:23:36.377Z,29.08
2023-01-25T02:27:29.114Z,30.17
2023-01-25T02:31:25.377Z,27.42
2023-01-25T02:35:23.415Z,28.60
2023-01-25T02:39:20.425Z,26.30
2023-01-25T02:43:14.911Z,24.52
2023-01-25T02:47:07.656Z,24.50
2023-01-25T02:51:00.772Z,25.40
2023-01-25T02:54:53.289Z,25.25
2023-01-25T02:58:46.320Z,24.52
2023-01-25T03:02:39.267Z,25.23
2023-01-25T03:06:32.820Z,26.67
2023-01-25T03:10:25.893Z,24.85
2023-01-25T03:14:18.447Z,25.13
2023-01-25T03:18:11.084Z,24.67
2023-01-25T03:22:05.925Z,24.38
2023-01-25T03:26:12.152Z,23.75
2023-01-25T03:30:05.895Z,24.05
2023-01-25T03:33:58.927Z,22.08
2023-01-25T03:37:51.493Z,21.65
2023-01-25T03:41:45.336Z,23.98
2023-01-25T03:45:38.013Z,22.23
2023-01-25T03:49:30.660Z,21.52
2023-01-25T03:53:29.362Z,20.67
2023-01-25T03:57:21.925Z,18.75
2023-01-25T04:01:15.046Z,21.33
2023-01-25T04:05:08.636Z,19.85
2023-01-25T04:09:10.956Z,21.35
2023-01-25T04:13:03.813Z,20.45
2023-01-25T04:16:56.462Z,23.85
2023-01-25T04:20:58.552Z,20.77
2023-01-25T04:24:51.372Z,22.00
2023-01-25T04:28:44.111Z,21.15
2023-01-25T04:32:37.339Z,20.23
2023-01-25T04:36:29.933Z,23.05
2023-01-25T04:40:22.756Z,19.40
2023-01-25T04:44:15.818Z,18.95
2023-01-25T04:48:10.098Z,21.15
2023-01-25T04:52:03.502Z,19.85
2023-01-25T04:55:56.677Z,19.83
2023-01-25T04:59:49.380Z,20.30
2023-01-25T05:03:41.893Z,19.23
2023-01-25T05:07:34.712Z,19.10
2023-01-25T05:11:28.475Z,19.90
2023-01-25T05:15:21.015Z,20.45
2023-01-25T05:19:13.862Z,18.15
2023-01-25T05:23:06.732Z,19.48
2023-01-25T05:27:05.926Z,19.35
2023-01-25T05:30:59.222Z,18.45
2023-01-25T05:34:52.197Z,18.95
2023-01-25T05:38:44.906Z,22.58
2023-01-25T05:42:37.749Z,25.40
2023-01-25T05:46:30.613Z,26.25
2023-01-25T05:50:25.403Z,24.67
2023-01-25T05:54:19.594Z,23.15
2023-01-25T05:58:12.263Z,24.83
2023-01-25T06:02:04.943Z,23.20
2023-01-25T06:05:59.474Z,23.65
2023-01-25T06:09:52.027Z,25.20
2023-01-25T06:13:45.433Z,24.83
2023-01-25T06:17:38.288Z,23.20
2023-01-25T06:21:32.100Z,20.30
2023-01-25T06:25:24.730Z,20.95
2023-01-25T06:29:17.615Z,20.60
2023-01-25T06:33:10.436Z,21.80
2023-01-25T06:37:03.023Z,19.95
2023-01-25T06:41:00.329Z,19.60
2023-01-25T06:44:52.983Z,23.42
2023-01-25T06:48:45.865Z,22.50
2023-01-25T06:52:38.904Z,21.23
2023-01-25T06:56:32.977Z,22.83
2023-01-25T07:00:25.939Z,21.80
2023-01-25T07:04:18.623Z,22.08
2023-01-25T07:08:11.582Z,20.35
2023-01-25T07:12:05.230Z,23.50
2023-01-25T07:16:03.128Z,22.58
2023-01-25T07:19:56.014Z,25.88
2023-01-25T07:23:50.005Z,31.88
2023-01-25T07:27:42.715Z,24.10
2023-01-25T07:31:35.659Z,25.38
2023-01-25T07:35:28.925Z,25.45
2023-01-25T07:39:21.590Z,25.55
2023-01-25T07:43:14.190Z,29.27
2023-01-25T07:47:07.186Z,27.40
2023-01-25T07:51:11.872Z,27.08
2023-01-25T07:55:05.460Z,25.92
2023-01-25T07:58:59.646Z,27.83
2023-01-25T08:02:53.230Z,28.20
2023-01-25T08:06:46.673Z,25.98
2023-01-25T08:10:39.692Z,26.92
2023-01-25T08:14:32.482Z,25.35
2023-01-25T08:18:25.722Z,25.92
2023-01-25T08:22:18.758Z,26.23
2023-01-25T08:26:14.045Z,26.85
2023-01-25T08:30:07.457Z,25.95
2023-01-25T08:34:01.483Z,24.15
2023-01-25T08:37:54.160Z,26.63
2023-01-25T08:41:47.681Z,26.58
2023-01-25T08:45:40.395Z,27.70
2023-01-25T08:49:34.693Z,28.65
2023-01-25T08:53:32.301Z,26.58
2023-01-25T08:57:25.755Z,24.35
2023-01-25T09:01:20.533Z,35.78
2023-01-25T09:05:15.887Z,26.05
2023-01-25T09:09:08.925Z,23.90
2023-01-25T09:13:01.720Z,24.65
2023-01-25T09:16:54.463Z,27.90
2023-01-25T09:20:47.455Z,25.13
2023-01-25T09:24:40.656Z,29.35
2023-01-25T09:28:34.053Z,26.65
2023-01-25T09:32:28.218Z,25.30
2023-01-25T09:36:21.453Z,25.73
2023-01-25T09:40:22.002Z,26.48
2023-01-25T09:44:38.881Z,29.02
2023-01-25T09:48:42.851Z,26.75
2023-01-25T09:53:10.935Z,26.25
2023-01-25T09:57:03.967Z,25.42
2023-01-25T10:01:14.399Z,22.05
2023-01-25T10:05:15.193Z,23.85
2023-01-25T10:09:23.213Z,24.85
2023-01-25T10:13:19.684Z,28.88
2023-01-25T10:17:35.030Z,22.08
2023-01-25T10:21:37.029Z,20.75
2023-01-25T10:25:36.508Z,20.08
2023-01-25T10:29:33.271Z,18.70
2023-01-25T10:33:28.027Z,18.67
2023-01-25T10:37:23.686Z,17.20
2023-01-25T10:41:27.136Z,16.95
2023-01-25T10:45:19.781Z,17.83
2023-01-25T10:49:24.647Z,17.35
2023-01-25T10:53:23.671Z,18.88
2023-01-25T10:57:22.641Z,16.08
2023-01-25T11:01:28.704Z,19.38
2023-01-25T11:05:30.360Z,17.27
2023-01-25T11:09:23.049Z,20.23
2023-01-25T11:13:16.294Z,20.33
2023-01-25T11:17:27.864Z,19.88
2023-01-25T11:21:33.673Z,17.63
2023-01-25T11:25:33.468Z,17.58
2023-01-25T11:29:26.547Z,17.15
2023-01-25T11:33:21.774Z,16.50
2023-01-25T11:37:38.464Z,17.40
2023-01-25T11:46:01.819Z,52.65
2023-01-25T11:50:07.914Z,17.33
2023-01-25T11:54:27.436Z,17.37
2023-01-25T11:58:20.010Z,16.02
2023-01-25T12:02:37.746Z,19.17
2023-01-25T12:06:42.726Z,19.45
2023-01-25T12:10:49.079Z,17.88
2023-01-25T12:14:59.898Z,17.48
2023-01-25T12:19:18.906Z,20.15
2023-01-25T12:23:25.035Z,19.63
2023-01-25T12:27:25.920Z,21.00
2023-01-25T12:31:29.392Z,17.10
2023-01-25T12:35:34.617Z,17.58
2023-01-25T12:39:41.230Z,21.67
2023-01-25T12:43:40.599Z,22.92
2023-01-25T12:47:43.102Z,19.42
2023-01-25T12:51:40.249Z,21.40
2023-01-25T12:55:33.903Z,22.30
2023-01-25T12:59:55.690Z,21.40
2023-01-25T13:03:57.101Z,21.95
2023-01-25T13:07:54.704Z,22.38
2023-01-25T13:11:48.549Z,25.30
2023-01-25T13:15:43.611Z,25.92
2023-01-25T13:19:36.394Z,24.27
2023-01-25T13:23:52.350Z,22.70
2023-01-25T13:27:45.095Z,22.98
2023-01-25T13:31:58.904Z,21.77
2023-01-25T13:35:53.865Z,19.85
2023-01-25T13:39:54.984Z,19.08
2023-01-25T13:43:50.962Z,18.90
2023-01-25T13:47:45.639Z,19.83
2023-01-25T13:51:41.027Z,21.67
2023-01-25T13:55:42.928Z,23.13
2023-01-25T13:59:35.542Z,24.20
2023-01-25T14:03:43.479Z,24.55
2023-01-25T14:07:37.464Z,23.38
2023-01-25T14:11:34.741Z,23.90
2023-01-25T14:15:33.231Z,28.25
2023-01-25T14:19:31.049Z,36.58
2023-01-25T14:23:28.278Z,76.40
2023-01-25T14:27:21.660Z,43.28
2023-01-25T14:31:24.720Z,35.67
2023-01-25T14:35:43.066Z,45.55
2023-01-25T14:39:42.705Z,22.40
2023-01-25T14:43:37.531Z,21.77
2023-01-25T14:47:31.681Z,20.77
2023-01-25T14:51:29.144Z,19.90
2023-01-25T14:55:21.981Z,22.67
2023-01-25T14:59:35.143Z,21.42
2023-01-25T15:03:30.407Z,20.20
2023-01-25T15:07:47.908Z,21.27
2023-01-25T15:11:46.469Z,21.40
2023-01-25T15:16:02.918Z,20.10
2023-01-25T15:19:55.685Z,22.48
2023-01-25T15:23:49.992Z,22.92
2023-01-25T15:27:43.044Z,23.63
2023-01-25T15:31:38.411Z,23.58
2023-01-25T15:35:31.241Z,23.40
2023-01-25T15:39:24.677Z,22.27
2023-01-25T15:43:19.458Z,23.63
2023-01-25T15:47:12.178Z,24.45
2023-01-25T15:51:06.565Z,23.67
2023-01-25T15:55:02.086Z,23.63
2023-01-25T15:58:59.159Z,22.90
2023-01-25T16:02:52.210Z,32.97
2023-01-25T16:06:55.077Z,28.88
2023-01-25T16:10:48.940Z,70.75
2023-01-25T16:14:42.117Z,29.48
2023-01-25T16:18:34.967Z,25.38
2023-01-25T16:22:28.278Z,25.67
2023-01-25T16:26:25.503Z,31.10
2023-01-25T16:30:26.014Z,32.03
2023-01-25T16:34:21.614Z,25.10
2023-01-25T16:38:15.981Z,26.85
2023-01-25T16:42:13.372Z,28.25
2023-01-25T16:46:07.524Z,28.38
2023-01-25T16:50:00.791Z,28.48
2023-01-25T16:53:56.565Z,36.30
2023-01-25T16:57:52.979Z,33.27
2023-01-25T17:01:47.467Z,32.78
2023-01-25T17:05:40.902Z,30.15
2023-01-25T17:09:34.512Z,28.23
2023-01-25T17:13:28.793Z,29.15
2023-01-25T17:17:24.269Z,28.63
2023-01-25T17:21:21.428Z,30.75
2023-01-25T17:25:15.370Z,28.80
2023-01-25T17:29:10.425Z,29.38
2023-01-25T17:33:06.448Z,31.38
2023-01-25T17:36:59.939Z,34.90
2023-01-25T17:40:54.015Z,38.80
2023-01-25T17:44:48.526Z,33.33
2023-01-25T17:48:42.400Z,33.53
2023-01-25T17:52:36.873Z,36.67
2023-01-25T17:56:31.208Z,36.70
2023-01-25T18:00:25.671Z,34.40
2023-01-25T18:04:20.988Z,37.33
2023-01-25T18:08:14.807Z,39.53
2023-01-25T18:12:12.242Z,37.60
2023-01-25T18:16:09.264Z,32.00
2023-01-25T18:20:06.127Z,30.55
2023-01-25T18:24:34.257Z,27.27
2023-01-25T18:28:29.135Z,26.95
2023-01-25T18:32:23.557Z,26.25
2023-01-25T18:36:19.605Z,24.48
2023-01-25T18:40:15.445Z,23.30
2023-01-25T18:44:10.627Z,24.13
2023-01-25T18:48:14.526Z,23.48
2023-01-25T18:52:11.982Z,22.40
2023-01-25T18:56:13.733Z,24.93
2023-01-25T19:00:11.763Z,22.85
2023-01-25T19:04:07.001Z,22.52
2023-01-25T19:08:06.790Z,21.38
2023-01-25T19:12:01.726Z,27.02
2023-01-25T19:16:08.052Z,32.92
2023-01-25T19:20:02.906Z,27.40
2023-01-25T19:23:58.565Z,27.45
2023-01-25T19:27:52.850Z,52.53
2023-01-25T19:31:49.210Z,29.77
2023-01-25T19:35:46.601Z,29.52
2023-01-25T19:39:41.287Z,28.00
2023-01-25T19:43:42.218Z,26.58
2023-01-25T19:47:37.755Z,23.60
2023-01-25T19:51:38.447Z,24.97
2023-01-25T19:55:33.173Z,33.92
2023-01-25T19:59:29.338Z,29.25
2023-01-25T20:03:25.360Z,26.63
2023-01-25T20:07:22.193Z,30.40
2023-01-25T20:11:21.479Z,29.73
2023-01-25T20:15:16.092Z,32.13
2023-01-25T20:19:13.802Z,32.50
2023-01-25T20:23:12.147Z,33.53
2023-01-25T20:27:08.265Z,35.20
2023-01-25T20:31:04.722Z,36.20
2023-01-25T20:35:04.246Z,36.47
2023-01-25T20:39:00.005Z,34.15
2023-01-25T20:42:55.051Z,35.50
2023-01-25T20:46:51.869Z,33.80
2023-01-25T20:50:46.289Z,33.03
2023-01-25T20:54:42.471Z,31.75
2023-01-25T20:58:37.821Z,31.15
2023-01-25T21:02:32.224Z,32.85
2023-01-25T21:06:28.104Z,30.95
2023-01-25T21:10:22.473Z,32.40
2023-01-25T21:14:16.557Z,32.70
2023-01-25T21:18:12.170Z,31.38
2023-01-25T21:22:05.801Z,31.48
2023-01-25T21:25:59.678Z,31.73
2023-01-25T21:29:53.653Z,32.45
2023-01-25T21:33:49.528Z,30.33
2023-01-25T21:37:46.176Z,28.67
2023-01-25T21:41:40.336Z,30.80
2023-01-25T21:45:52.273Z,30.63
2023-01-25T21:50:05.219Z,31.73
2023-01-25T21:54:00.137Z,31.45
2023-01-25T21:57:53.885Z,32.25
2023-01-25T22:01:49.669Z,31.05
2023-01-25T22:05:43.545Z,32.22
2023-01-25T22:09:36.661Z,32.90
2023-01-25T22:13:31.208Z,36.58
2023-01-25T22:17:25.751Z,36.78
2023-01-25T22:21:30.922Z,37.20
2023-01-25T22:25:23.502Z,38.25
2023-01-25T22:29:16.624Z,35.33
2023-01-25T22:33:09.512Z,35.10
2023-01-25T22:37:02.459Z,34.17
2023-01-25T22:40:56.543Z,32.72
2023-01-25T22:44:49.374Z,30.55
2023-01-25T22:48:41.989Z,30.30
2023-01-25T22:52:34.948Z,30.15
2023-01-25T22:56:32.121Z,30.40
2023-01-25T23:00:25.389Z,28.77
2023-01-25T23:04:18.449Z,32.85
2023-01-25T23:08:11.274Z,34.08
2023-01-25T23:12:04.477Z,34.20
2023-01-25T23:16:01.225Z,33.05
2023-01-25T23:19:53.956Z,38.10
2023-01-25T23:23:47.647Z,38.03
2023-01-25T23:27:40.474Z,37.33
2023-01-25T23:31:33.880Z,36.65
2023-01-25T23:35:27.464Z,35.22
2023-01-25T23:39:20.325Z,35.17
2023-01-25T23:43:13.475Z,34.83
2023-01-25T23:47:06.464Z,36.50
2023-01-25T23:51:02.662Z,35.08
2023-01-25T23:54:55.278Z,37.30
2023-01-25T23:58:49.270Z,34.30
